Terminal Aerodrome Forecast
Issued by NWS

Home | Current Version | Previous Version | Text Only | Print | Product List | Glossary Off
Versions: 1 2 3 4 5 6 7 8 9 10 11 12 13 14 15

000
FTUS43 KTOP 230419 AAB
TAFFOE
TAF AMD
KFOE 230419Z 2304/2324 05006KT P6SM VCTS BKN100CB
      TEMPO 2304/2306 5SM TSRA BKN050CB
     FM230800 07003KT P6SM SCT015 BKN090=

USA.gov is the U.S. government's official web portal to all federal, state and local government web resources and services.